createdAt,value
2018-02-22T00:01:42.627Z,26.20
2018-02-22T00:04:10.280Z,26.13
2018-02-22T00:06:38.660Z,27.97
2018-02-22T00:09:07.028Z,26.47
2018-02-22T00:11:35.373Z,27.73
2018-02-22T00:14:03.022Z,26.20
2018-02-22T00:16:30.626Z,26.47
2018-02-22T00:18:58.257Z,27.10
2018-02-22T00:21:26.005Z,26.77
2018-02-22T00:23:53.740Z,26.37
2018-02-22T00:26:22.046Z,26.33
2018-02-22T00:28:49.652Z,27.17
2018-02-22T00:31:17.229Z,26.83
2018-02-22T00:33:44.812Z,27.83
2018-02-22T00:36:12.689Z,27.20
2018-02-22T00:38:40.255Z,27.50
2018-02-22T00:41:07.917Z,29.50
2018-02-22T00:43:35.540Z,30.43
2018-02-22T00:46:03.862Z,28.53
2018-02-22T00:48:31.420Z,29.80
2018-02-22T00:50:58.972Z,31.37
2018-02-22T00:53:26.583Z,30.57
2018-02-22T00:55:54.904Z,30.10
2018-02-22T00:58:22.481Z,31.33
2018-02-22T01:00:50.049Z,30.97
2018-02-22T01:03:17.621Z,30.07
2018-02-22T01:05:45.381Z,29.73
2018-02-22T01:08:13.735Z,28.53
2018-02-22T01:10:41.338Z,27.00
2018-02-22T01:13:08.912Z,26.83
2018-02-22T01:15:37.248Z,26.83
2018-02-22T01:18:04.809Z,27.50
2018-02-22T01:20:32.409Z,29.13
2018-02-22T01:23:00.738Z,27.70
2018-02-22T01:25:28.332Z,30.00
2018-02-22T01:27:55.908Z,30.10
2018-02-22T01:30:23.592Z,30.47
2018-02-22T01:32:51.269Z,29.87
2018-02-22T01:35:18.862Z,28.80
2018-02-22T01:37:46.432Z,30.10
2018-02-22T01:40:14.192Z,29.30
2018-02-22T01:42:41.751Z,29.07
2018-02-22T01:45:10.190Z,28.23
2018-02-22T01:47:37.764Z,29.53
2018-02-22T01:50:05.342Z,29.13
2018-02-22T01:52:32.945Z,29.80
2018-02-22T01:55:01.299Z,29.00
2018-02-22T01:57:29.677Z,31.37
2018-02-22T01:59:57.242Z,29.57
2018-02-22T02:02:24.893Z,30.20
2018-02-22T02:04:52.517Z,31.50
2018-02-22T02:07:20.096Z,29.67
2018-02-22T02:09:47.649Z,30.07
2018-02-22T02:12:15.238Z,29.93
2018-02-22T02:14:42.830Z,30.63
2018-02-22T02:17:11.194Z,31.30
2018-02-22T02:19:39.522Z,30.20
2018-02-22T02:22:07.081Z,30.43
2018-02-22T02:24:34.638Z,30.93
2018-02-22T02:27:02.214Z,28.77
2018-02-22T02:29:29.805Z,27.73
2018-02-22T02:31:57.402Z,26.43
2018-02-22T02:34:24.957Z,24.80
2018-02-22T02:36:52.527Z,26.47
2018-02-22T02:39:20.117Z,24.60
2018-02-22T02:41:47.790Z,25.83
2018-02-22T02:44:15.371Z,25.23
2018-02-22T02:46:42.961Z,25.00
2018-02-22T02:49:10.537Z,24.67
2018-02-22T02:51:38.122Z,24.30
2018-02-22T02:54:05.680Z,25.17
2018-02-22T02:56:33.260Z,25.00
2018-02-22T02:59:00.854Z,25.53
2018-02-22T03:01:29.186Z,24.50
2018-02-22T03:03:56.763Z,27.57
2018-02-22T03:06:24.360Z,26.93
2018-02-22T03:08:52.467Z,29.27
2018-02-22T03:11:20.150Z,28.20
2018-02-22T03:13:47.724Z,28.97
2018-02-22T03:16:15.311Z,28.67
2018-02-22T03:18:42.865Z,28.10
2018-02-22T03:21:11.209Z,27.83
2018-02-22T03:23:38.770Z,28.73
2018-02-22T03:26:06.336Z,27.00
2018-02-22T03:28:33.881Z,28.43
2018-02-22T03:31:01.458Z,26.60
2018-02-22T03:33:29.020Z,27.33
2018-02-22T03:35:56.577Z,26.03
2018-02-22T03:38:24.142Z,26.93
2018-02-22T03:40:51.795Z,25.70
2018-02-22T03:43:19.362Z,23.00
2018-02-22T03:45:46.962Z,24.83
2018-02-22T03:48:15.304Z,25.70
2018-02-22T03:50:42.897Z,24.20
2018-02-22T03:53:10.466Z,22.63
2018-02-22T03:55:38.050Z,23.73
2018-02-22T03:58:05.631Z,22.43
2018-02-22T04:00:33.216Z,23.07
2018-02-22T04:03:01.577Z,21.07
2018-02-22T04:05:29.178Z,22.23
2018-02-22T04:07:56.805Z,22.17
2018-02-22T04:10:24.461Z,21.43
2018-02-22T04:12:52.030Z,22.23
2018-02-22T04:15:19.587Z,21.13
2018-02-22T04:17:47.199Z,21.80
2018-02-22T04:20:14.812Z,21.73
2018-02-22T04:22:42.418Z,21.43
2018-02-22T04:25:10.023Z,21.27
2018-02-22T04:27:37.597Z,21.87
2018-02-22T04:30:05.921Z,21.97
2018-02-22T04:32:33.511Z,20.63
2018-02-22T04:35:01.064Z,20.83
2018-02-22T04:37:28.638Z,21.40
2018-02-22T04:39:56.972Z,21.33
2018-02-22T04:42:24.537Z,22.00
2018-02-22T04:44:52.186Z,21.57
2018-02-22T04:47:19.813Z,21.87
2018-02-22T04:49:47.534Z,22.03
2018-02-22T04:52:15.126Z,24.13
2018-02-22T04:54:42.685Z,24.07
2018-02-22T04:57:11.257Z,23.40
2018-02-22T04:59:39.880Z,24.13
2018-02-22T05:02:08.213Z,22.77
2018-02-22T05:04:35.785Z,22.37
2018-02-22T05:07:03.339Z,23.40
2018-02-22T05:09:31.060Z,23.03
2018-02-22T05:11:58.617Z,22.43
2018-02-22T05:14:26.228Z,23.07
2018-02-22T05:16:53.800Z,23.67
2018-02-22T05:19:21.349Z,22.97
2018-02-22T05:21:49.074Z,22.70
2018-02-22T05:24:16.642Z,22.57
2018-02-22T05:26:44.203Z,22.30
2018-02-22T05:29:11.773Z,22.03
2018-02-22T05:31:39.361Z,23.40
2018-02-22T05:34:06.964Z,21.07
2018-02-22T05:36:34.578Z,22.47
2018-02-22T05:39:02.155Z,22.43
2018-02-22T05:41:29.718Z,20.60
2018-02-22T05:43:58.247Z,20.47
2018-02-22T05:46:32.741Z,21.03
2018-02-22T05:49:00.388Z,20.90
2018-02-22T05:51:28.101Z,19.80
2018-02-22T05:53:55.729Z,19.63
2018-02-22T05:56:24.208Z,20.63
2018-02-22T05:58:53.002Z,20.33
2018-02-22T06:01:20.558Z,19.60
2018-02-22T06:03:48.106Z,19.37
2018-02-22T06:06:16.476Z,19.10
2018-02-22T06:08:44.042Z,21.47
2018-02-22T06:11:12.523Z,19.13
2018-02-22T06:13:40.950Z,19.83
2018-02-22T06:16:08.527Z,19.73
2018-02-22T06:18:36.109Z,18.23
2018-02-22T06:21:03.672Z,17.13
2018-02-22T06:23:31.238Z,17.50
2018-02-22T06:25:58.804Z,16.97
2018-02-22T06:28:27.453Z,17.80
2018-02-22T06:30:55.188Z,17.50
2018-02-22T06:33:22.767Z,18.13
2018-02-22T06:35:50.330Z,17.73
2018-02-22T06:38:17.941Z,18.97
2018-02-22T06:40:46.294Z,17.97
2018-02-22T06:43:14.009Z,19.23
2018-02-22T06:45:41.682Z,17.67
2018-02-22T06:48:09.257Z,17.00
2018-02-22T06:50:36.827Z,17.23
2018-02-22T06:53:04.390Z,15.97
2018-02-22T06:55:32.741Z,16.63
2018-02-22T06:58:00.593Z,16.90
2018-02-22T07:00:28.167Z,17.13
2018-02-22T07:02:55.737Z,16.27
2018-02-22T07:05:23.316Z,17.03
2018-02-22T07:07:51.037Z,16.80
2018-02-22T07:10:18.746Z,15.53
2018-02-22T07:12:47.817Z,15.63
2018-02-22T07:15:15.373Z,16.67
2018-02-22T07:17:42.948Z,17.13
2018-02-22T07:20:10.518Z,16.83
2018-02-22T07:22:38.100Z,17.43
2018-02-22T07:25:06.421Z,18.23
2018-02-22T07:27:34.022Z,16.93
2018-02-22T07:30:01.578Z,16.90
2018-02-22T07:32:29.153Z,15.57
2018-02-22T07:34:56.701Z,15.47
2018-02-22T07:37:24.262Z,17.00
2018-02-22T07:39:52.614Z,15.80
2018-02-22T07:42:20.177Z,15.07
2018-02-22T07:44:47.805Z,15.10
2018-02-22T07:47:15.388Z,15.50
2018-02-22T07:49:42.965Z,15.87
2018-02-22T07:52:10.548Z,15.30
2018-02-22T07:54:38.129Z,14.90
2018-02-22T07:57:06.445Z,14.97
2018-02-22T07:59:34.025Z,14.53
2018-02-22T08:02:01.600Z,16.00
2018-02-22T08:04:29.165Z,15.20
2018-02-22T08:06:57.561Z,15.63
2018-02-22T08:09:25.914Z,15.07
2018-02-22T08:11:53.461Z,14.73
2018-02-22T08:14:21.038Z,13.47
2018-02-22T08:16:48.601Z,14.07
2018-02-22T08:19:16.166Z,14.73
2018-02-22T08:21:43.740Z,14.63
2018-02-22T08:24:12.095Z,13.90
2018-02-22T08:26:39.732Z,12.80
2018-02-22T08:29:07.274Z,13.93
2018-02-22T08:31:34.853Z,13.73
2018-02-22T08:34:02.444Z,13.97
2018-02-22T08:36:30.006Z,14.10
2018-02-22T08:38:57.609Z,13.97
2018-02-22T08:41:25.174Z,12.87
2018-02-22T08:43:52.741Z,12.70
2018-02-22T08:46:20.297Z,12.87
2018-02-22T08:48:47.865Z,11.83
2018-02-22T08:51:15.455Z,11.50
2018-02-22T08:53:43.008Z,11.53
2018-02-22T08:56:10.725Z,11.20
2018-02-22T08:58:38.297Z,11.00
2018-02-22T09:01:05.984Z,11.17
2018-02-22T09:03:33.548Z,10.80
2018-02-22T09:06:01.207Z,9.60
2018-02-22T09:08:28.821Z,10.33
2018-02-22T09:10:57.158Z,9.50
2018-02-22T09:13:24.778Z,9.87
2018-02-22T09:15:52.383Z,9.77
2018-02-22T09:18:19.974Z,10.00
2018-02-22T09:20:48.322Z,9.83
2018-02-22T09:23:17.402Z,9.97
2018-02-22T09:25:44.947Z,10.30
2018-02-22T09:28:12.518Z,10.30
2018-02-22T09:30:40.206Z,9.40
2018-02-22T09:33:07.783Z,10.40
2018-02-22T09:35:36.112Z,10.57
2018-02-22T09:38:03.674Z,9.60
2018-02-22T09:40:31.233Z,10.27
2018-02-22T09:42:58.876Z,9.87
2018-02-22T09:45:26.442Z,9.80
2018-02-22T09:47:54.038Z,9.60
2018-02-22T09:50:21.629Z,9.20
2018-02-22T09:52:49.940Z,9.30
2018-02-22T09:55:17.535Z,9.93
2018-02-22T09:57:45.090Z,10.30
2018-02-22T10:00:12.714Z,10.27
2018-02-22T10:02:40.312Z,10.50
2018-02-22T10:05:07.882Z,11.53
2018-02-22T10:07:35.451Z,11.23
2018-02-22T10:10:03.024Z,10.87
2018-02-22T10:12:31.368Z,11.47
2018-02-22T10:14:58.934Z,10.73
2018-02-22T10:17:26.527Z,10.40
2018-02-22T10:19:54.844Z,10.97
2018-02-22T10:22:22.421Z,11.60
2018-02-22T10:24:49.996Z,11.10
2018-02-22T10:27:17.592Z,11.07
2018-02-22T10:29:45.106Z,11.50
2018-02-22T10:32:12.678Z,11.03
2018-02-22T10:34:40.234Z,10.90
2018-02-22T10:37:07.813Z,10.90
2018-02-22T10:39:36.127Z,10.30
2018-02-22T10:42:03.696Z,9.70
2018-02-22T10:44:31.287Z,10.33
2018-02-22T10:46:58.858Z,9.60
2018-02-22T10:49:26.434Z,10.80
2018-02-22T10:51:54.789Z,10.60
2018-02-22T10:54:22.375Z,10.47
2018-02-22T10:56:50.704Z,9.33
2018-02-22T10:59:18.272Z,9.50
2018-02-22T11:01:51.516Z,9.87
2018-02-22T11:04:19.845Z,10.50
2018-02-22T11:06:47.385Z,9.73
2018-02-22T11:09:14.961Z,9.10
2018-02-22T11:11:42.493Z,9.77
2018-02-22T11:14:10.083Z,9.30
2018-02-22T11:16:37.645Z,10.60
2018-02-22T11:19:05.238Z,10.60
2018-02-22T11:21:33.565Z,10.27
2018-02-22T11:24:01.151Z,10.60
2018-02-22T11:26:28.720Z,11.07
2018-02-22T11:28:56.272Z,10.00
2018-02-22T11:31:23.857Z,9.17
2018-02-22T11:33:51.427Z,8.90
2018-02-22T11:36:19.765Z,8.97
2018-02-22T11:38:47.318Z,8.50
2018-02-22T11:41:14.878Z,8.90
2018-02-22T11:43:42.481Z,8.67
2018-02-22T11:46:10.832Z,9.10
2018-02-22T11:48:38.375Z,8.40
2018-02-22T11:51:05.961Z,8.40
2018-02-22T11:53:33.521Z,8.37
2018-02-22T11:56:01.109Z,8.47
2018-02-22T11:58:29.519Z,8.57
2018-02-22T12:00:57.062Z,8.77
2018-02-22T12:03:24.622Z,8.77
2018-02-22T12:05:52.185Z,8.00
2018-02-22T12:08:19.765Z,7.87
2018-02-22T12:10:47.301Z,7.40
2018-02-22T12:13:14.897Z,7.13
2018-02-22T12:15:42.468Z,6.70
2018-02-22T12:18:10.070Z,7.20
2018-02-22T12:20:38.390Z,6.93
2018-02-22T12:23:05.978Z,6.73
2018-02-22T12:25:33.537Z,7.13
2018-02-22T12:28:01.094Z,6.90
2018-02-22T12:30:28.702Z,8.03
2018-02-22T12:32:56.256Z,7.10
2018-02-22T12:35:23.816Z,7.13
2018-02-22T12:37:51.387Z,7.10
2018-02-22T12:40:19.065Z,7.30
2018-02-22T12:42:46.597Z,6.47
2018-02-22T12:45:14.266Z,7.10
2018-02-22T12:47:41.818Z,7.60
2018-02-22T12:50:09.398Z,7.03
2018-02-22T12:52:37.161Z,6.63
2018-02-22T12:55:04.732Z,7.10
2018-02-22T12:57:32.291Z,7.23
2018-02-22T12:59:59.893Z,7.10
2018-02-22T13:02:28.206Z,6.60
2018-02-22T13:04:55.794Z,6.80
2018-02-22T13:07:23.359Z,6.63
2018-02-22T13:09:50.974Z,6.80
2018-02-22T13:12:19.290Z,6.90
2018-02-22T13:14:46.876Z,8.83
2018-02-22T13:17:14.438Z,7.00
2018-02-22T13:19:42.002Z,7.60
2018-02-22T13:22:09.557Z,7.60
2018-02-22T13:24:37.133Z,6.50
2018-02-22T13:27:05.462Z,6.40
2018-02-22T13:29:32.977Z,6.07
2018-02-22T13:32:01.317Z,6.57
2018-02-22T13:34:35.266Z,6.90
2018-02-22T13:40:02.482Z,7.13
2018-02-22T13:42:30.030Z,7.60
2018-02-22T13:45:09.490Z,6.80
2018-02-22T13:47:37.136Z,6.83
2018-02-22T13:50:16.677Z,6.90
2018-02-22T13:52:44.221Z,7.67
2018-02-22T13:55:11.765Z,7.13
2018-02-22T13:57:40.155Z,6.77
2018-02-22T14:00:07.692Z,7.07
2018-02-22T14:02:35.281Z,7.47
2018-02-22T14:05:02.869Z,7.83
2018-02-22T14:07:30.467Z,8.13
2018-02-22T14:09:58.045Z,7.57
2018-02-22T14:12:26.477Z,8.57
2018-02-22T14:14:54.041Z,7.73
2018-02-22T14:17:21.582Z,7.53
2018-02-22T14:19:49.152Z,6.90
2018-02-22T14:22:16.719Z,7.60
2018-02-22T14:24:44.300Z,7.40
2018-02-22T14:27:11.880Z,7.47
2018-02-22T14:29:40.226Z,8.47
2018-02-22T14:32:07.792Z,8.77
2018-02-22T14:34:35.373Z,8.10
2018-02-22T14:37:03.678Z,7.90
2018-02-22T14:39:31.278Z,8.00
2018-02-22T14:41:58.832Z,8.53
2018-02-22T14:44:26.479Z,8.50
2018-02-22T14:46:54.104Z,8.20
2018-02-22T14:49:22.453Z,7.93
2018-02-22T14:51:50.012Z,7.40
2018-02-22T14:54:17.596Z,7.67
2018-02-22T14:56:45.942Z,7.47
2018-02-22T14:59:13.561Z,8.20
2018-02-22T15:01:41.122Z,7.80
2018-02-22T15:04:08.687Z,8.50
2018-02-22T15:06:36.261Z,7.90
2018-02-22T15:09:03.852Z,8.10
2018-02-22T15:11:31.393Z,7.67
2018-02-22T15:13:58.969Z,7.20
2018-02-22T15:16:26.620Z,7.90
2018-02-22T15:18:54.177Z,7.50
2018-02-22T15:21:21.748Z,7.50
2018-02-22T15:23:49.348Z,7.90
2018-02-22T15:26:16.946Z,8.23
2018-02-22T15:28:44.515Z,8.47
2018-02-22T15:31:12.101Z,8.13
2018-02-22T15:33:39.716Z,7.83
2018-02-22T15:36:07.275Z,8.10
2018-02-22T15:38:34.824Z,8.63
2018-02-22T15:41:02.502Z,8.67
2018-02-22T15:43:30.057Z,8.70
2018-02-22T15:45:57.717Z,8.93
2018-02-22T15:48:25.278Z,8.83
2018-02-22T15:50:52.861Z,8.33
2018-02-22T15:53:20.405Z,8.70
2018-02-22T15:55:47.983Z,8.10
2018-02-22T15:58:15.764Z,8.33
2018-02-22T16:00:43.301Z,7.90
2018-02-22T16:03:10.867Z,9.07
2018-02-22T16:05:38.456Z,9.13
2018-02-22T16:08:06.027Z,8.30
2018-02-22T16:10:33.691Z,8.50
2018-02-22T16:13:01.242Z,8.20
2018-02-22T16:15:28.869Z,7.97
2018-02-22T16:17:56.423Z,8.13
2018-02-22T16:20:23.985Z,7.23
2018-02-22T16:22:51.591Z,7.70
2018-02-22T16:25:19.914Z,7.63
2018-02-22T16:27:47.709Z,7.87
2018-02-22T16:30:15.310Z,8.40
2018-02-22T16:32:43.677Z,8.13
2018-02-22T16:35:12.010Z,8.07
2018-02-22T16:37:39.583Z,8.10
2018-02-22T16:40:07.231Z,8.10
2018-02-22T16:42:34.802Z,8.20
2018-02-22T16:45:02.365Z,8.67
2018-02-22T16:47:29.930Z,10.43
2018-02-22T16:49:57.654Z,7.83
2018-02-22T16:52:25.217Z,8.37
2018-02-22T16:54:52.789Z,8.47
2018-02-22T16:57:20.341Z,8.60
2018-02-22T16:59:47.969Z,8.83
2018-02-22T17:02:16.304Z,7.90
2018-02-22T17:04:43.856Z,8.37
2018-02-22T17:07:11.465Z,8.57
2018-02-22T17:09:39.779Z,8.47
2018-02-22T17:12:07.376Z,8.47
2018-02-22T17:14:34.959Z,8.00
2018-02-22T17:17:03.266Z,7.97
2018-02-22T17:19:30.860Z,8.23
2018-02-22T17:21:58.438Z,8.03
2018-02-22T17:24:26.778Z,8.50
2018-02-22T17:26:59.958Z,8.23
2018-02-22T17:29:33.157Z,7.80
2018-02-22T17:32:06.361Z,7.67
2018-02-22T17:34:33.930Z,7.77
2018-02-22T17:37:20.158Z,8.57
2018-02-22T17:39:54.526Z,7.83
2018-02-22T17:42:22.114Z,8.00
2018-02-22T17:44:49.676Z,8.17
2018-02-22T17:47:17.264Z,8.10
2018-02-22T17:49:44.984Z,8.13
2018-02-22T17:52:12.563Z,8.53
2018-02-22T17:54:40.113Z,7.73
2018-02-22T17:57:07.773Z,8.50
2018-02-22T17:59:35.409Z,9.37
2018-02-22T18:02:03.882Z,9.13
2018-02-22T18:04:31.464Z,10.07
2018-02-22T18:06:59.073Z,9.53
2018-02-22T18:09:26.666Z,8.43
2018-02-22T18:11:54.229Z,8.43
2018-02-22T18:14:21.805Z,8.00
2018-02-22T18:16:49.470Z,9.27
2018-02-22T18:19:17.053Z,8.33
2018-02-22T18:21:44.633Z,9.23
2018-02-22T18:24:12.957Z,9.07
2018-02-22T18:26:40.533Z,9.23
2018-02-22T18:29:08.118Z,9.90
2018-02-22T18:31:35.689Z,8.97
2018-02-22T18:34:03.270Z,8.70
2018-02-22T18:36:31.588Z,9.10
2018-02-22T18:39:05.075Z,9.47
2018-02-22T18:41:38.261Z,9.53
2018-02-22T18:44:11.471Z,10.07
2018-02-22T18:46:39.080Z,9.80
2018-02-22T18:49:07.434Z,9.97
2018-02-22T18:51:35.158Z,10.10
2018-02-22T18:54:03.031Z,12.87
2018-02-22T18:56:30.589Z,10.57
2018-02-22T18:58:58.194Z,9.70
2018-02-22T19:01:25.797Z,9.50
2018-02-22T19:03:53.364Z,9.03
2018-02-22T19:06:20.976Z,8.33
2018-02-22T19:08:48.546Z,7.80
2018-02-22T19:11:16.124Z,8.37
2018-02-22T19:13:43.702Z,9.27
2018-02-22T19:16:11.330Z,11.20
2018-02-22T19:18:39.676Z,12.10
2018-02-22T19:21:07.273Z,12.00
2018-02-22T19:23:35.586Z,13.37
2018-02-22T19:26:03.145Z,14.57
2018-02-22T19:28:30.722Z,15.13
2018-02-22T19:30:58.487Z,14.47
2018-02-22T19:33:26.025Z,16.33
2018-02-22T19:35:53.619Z,17.17
2018-02-22T19:38:21.193Z,23.23
2018-02-22T19:40:48.803Z,18.10
2018-02-22T19:43:16.409Z,17.37
2018-02-22T19:45:44.091Z,17.10
2018-02-22T19:48:12.434Z,17.47
2018-02-22T19:50:40.000Z,16.87
2018-02-22T19:53:07.591Z,18.40
2018-02-22T19:55:35.157Z,18.23
2018-02-22T19:58:02.739Z,16.87
2018-02-22T20:00:30.305Z,16.87
2018-02-22T20:02:57.885Z,17.33
2018-02-22T20:05:25.487Z,17.73
2018-02-22T20:07:53.099Z,18.60
2018-02-22T20:10:20.660Z,18.83
2018-02-22T20:12:48.230Z,17.63
2018-02-22T20:15:15.877Z,19.20
2018-02-22T20:17:43.445Z,18.43
2018-02-22T20:20:11.016Z,18.20
2018-02-22T20:22:39.651Z,18.00
2018-02-22T20:25:08.061Z,18.27
2018-02-22T20:27:35.780Z,18.53
2018-02-22T20:30:03.371Z,18.63
2018-02-22T20:32:31.705Z,18.60
2018-02-22T20:35:00.157Z,19.93
2018-02-22T20:37:27.709Z,18.43
2018-02-22T20:39:55.368Z,19.20
2018-02-22T20:42:22.934Z,20.03
2018-02-22T20:44:50.528Z,17.67
2018-02-22T20:47:18.099Z,18.27
2018-02-22T20:49:45.692Z,17.87
2018-02-22T20:52:14.578Z,18.47
2018-02-22T20:54:42.183Z,18.60
2018-02-22T20:57:09.790Z,18.27
2018-02-22T20:59:38.145Z,17.77
2018-02-22T21:02:05.788Z,17.93
2018-02-22T21:04:33.347Z,17.63
2018-02-22T21:07:01.725Z,18.03
2018-02-22T21:09:29.396Z,17.73
2018-02-22T21:11:57.028Z,17.37
2018-02-22T21:14:24.649Z,18.10
2018-02-22T21:16:53.036Z,17.67
2018-02-22T21:19:21.362Z,19.00
2018-02-22T21:21:48.946Z,19.80
2018-02-22T21:24:16.512Z,19.43
2018-02-22T21:26:44.159Z,17.70
2018-02-22T21:29:11.738Z,17.77
2018-02-22T21:31:39.550Z,17.90
2018-02-22T21:34:07.123Z,16.90
2018-02-22T21:36:34.720Z,17.37
2018-02-22T21:39:03.848Z,16.33
2018-02-22T21:41:31.440Z,16.43
2018-02-22T21:43:59.805Z,16.67
2018-02-22T21:46:27.370Z,16.53
2018-02-22T21:48:55.009Z,17.30
2018-02-22T21:51:23.360Z,17.07
2018-02-22T21:53:52.602Z,16.37
2018-02-22T21:56:20.297Z,16.33
2018-02-22T21:58:47.877Z,15.97
2018-02-22T22:01:15.441Z,15.60
2018-02-22T22:03:43.121Z,14.73
2018-02-22T22:06:11.466Z,15.90
2018-02-22T22:08:39.038Z,15.47
2018-02-22T22:11:07.357Z,15.63
2018-02-22T22:13:34.981Z,15.17
2018-02-22T22:16:03.298Z,15.93
2018-02-22T22:18:30.871Z,16.00
2018-02-22T22:20:58.470Z,15.53
2018-02-22T22:23:26.823Z,16.63
2018-02-22T22:25:54.389Z,16.17
2018-02-22T22:28:21.977Z,15.70
2018-02-22T22:30:49.665Z,14.83
2018-02-22T22:33:17.250Z,15.80
2018-02-22T22:35:44.805Z,16.20
2018-02-22T22:38:12.385Z,17.27
2018-02-22T22:40:40.043Z,15.37
2018-02-22T22:43:07.616Z,15.27
2018-02-22T22:45:35.222Z,15.10
2018-02-22T22:48:03.540Z,15.10
2018-02-22T22:50:31.180Z,15.07
2018-02-22T22:52:59.559Z,14.50
2018-02-22T22:55:27.274Z,13.40
2018-02-22T22:57:55.001Z,13.10
2018-02-22T23:00:22.587Z,13.20
2018-02-22T23:02:50.170Z,13.40
2018-02-22T23:05:18.508Z,12.83
2018-02-22T23:07:46.085Z,12.40
2018-02-22T23:10:13.688Z,12.60
2018-02-22T23:12:42.045Z,13.60
2018-02-22T23:15:09.630Z,12.63
2018-02-22T23:17:37.956Z,12.67
2018-02-22T23:20:05.561Z,11.73
2018-02-22T23:22:33.905Z,11.87
2018-02-22T23:25:01.509Z,12.63
2018-02-22T23:27:29.127Z,11.40
2018-02-22T23:29:56.735Z,11.60
2018-02-22T23:32:25.090Z,11.63
2018-02-22T23:34:53.434Z,12.93
2018-02-22T23:37:21.094Z,12.53
2018-02-22T23:39:48.726Z,12.03
2018-02-22T23:42:31.246Z,11.53
2018-02-22T23:44:58.811Z,12.43
2018-02-22T23:47:26.399Z,11.80
2018-02-22T23:49:54.006Z,12.77
2018-02-22T23:52:21.587Z,12.57
2018-02-22T23:54:49.163Z,13.07
2018-02-22T23:57:16.731Z,14.20
2018-02-22T23:59:44.310Z,12.77
